Overview Statistics Trail Chart Weather Telemetry Raw packets
 

This is the latest recevied telemetry packets stored in our database for station/object OE6LME-2. If no packets are shown the sender has not sent any telemetry packets the latest 10 day(s).

Telemetry packets is used to share measurements like repeteater parameters, battery voltage, radiation readings (or any other measurements).

<< 1 2 3 4 >>
Time Press* Temp.in* Hum* QNH* Temp.out*
1777875085 951.4 hPa 22.2 C deg 36.9 % 1017 hPa 0 C deg
1777874887 951.4 hPa 22.4 C deg 36.9 % 1017 hPa 0 C deg
1777874548 951.3 hPa 22.6 C deg 36.2 % 1016.8 hPa 0 C deg
1777874488 951.4 hPa 22.9 C deg 36.1 % 1016.8 hPa 0 C deg
1777874450 951.3 hPa 23.1 C deg 35.8 % 1016.7 hPa 0 C deg
1777874438 951.3 hPa 22.9 C deg 36.1 % 1016.7 hPa 0 C deg
1777874349 951.3 hPa 23.1 C deg 35.8 % 1016.7 hPa 0 C deg
1777874263 951.3 hPa 23.2 C deg 35.8 % 1016.7 hPa 0 C deg
1777874256 951.3 hPa 23.2 C deg 35.6 % 1016.7 hPa 0 C deg
1777874134 951.3 hPa 23.3 C deg 35.7 % 1016.7 hPa 0 C deg
1777874022 951.3 hPa 23.3 C deg 35.6 % 1016.7 hPa 0 C deg
1777873994 951.3 hPa 23.3 C deg 35.6 % 1016.7 hPa 0 C deg
1777873888 951.3 hPa 23.1 C deg 35.7 % 1016.7 hPa 0 C deg
1777873838 951.3 hPa 23.2 C deg 35.8 % 1016.7 hPa 0 C deg
1777873787 951.3 hPa 23.3 C deg 35.7 % 1016.7 hPa 0 C deg
1777873736 951.3 hPa 23.3 C deg 35.7 % 1016.7 hPa 0 C deg
1777873702 951.3 hPa 23.2 C deg 36 % 1016.7 hPa 0 C deg
1777873676 951.3 hPa 23.2 C deg 36 % 1016.7 hPa 0 C deg
1777873614 951.4 hPa 23.3 C deg 36 % 1016.7 hPa 0 C deg
1777873547 951.3 hPa 23.3 C deg 36.1 % 1016.7 hPa 0 C deg
1777873515 951.3 hPa 23.2 C deg 36.1 % 1016.7 hPa 0 C deg
1777873384 951.4 hPa 23.1 C deg 36.2 % 1016.8 hPa 0 C deg
1777873293 951.4 hPa 22.8 C deg 36.4 % 1016.8 hPa 0 C deg
1777873257 951.4 hPa 23 C deg 36.2 % 1016.8 hPa 0 C deg
1777873206 951.3 hPa 23 C deg 36.2 % 1016.8 hPa 0 C deg
*Used Equation Coefficients:
Press: 0, 1, 0
Temp.in: 0, 1, 0
Hum: 0, 1, 0
QNH: 0, 1, 0
Temp.out: 0, 1, 0

  • The parameter names for the analog channels will be Value1, Value2, Value3 (up to Value5) if station has not sent a PARAM-packet that specifies the parameter names for each analog channel.
  • Each analog value is a decimal number between 000 and 255 (according to APRS specifications). The receiver use the telemetry equation coefficientsto to restore the original sensor values. If no EQNS-packet with equation coefficients is sent we will show the values as is (this corresponds to the equation coefficients a=0, b=1 and c=0).
    The sent equation coefficients is used in the equation: a * value2 + b * value + c.
  • The units for the analog values will not be shown if station has not sent a UNIT-packet specifying what unit's to use.
  • The parameter names for the digital bits will be Bit1, Bit2, Bit3 (up to Bit8) if station has not sent a PARAM-packet that specifies the parameter names for each digital bit.
  • All bit labels will be named "On" if station has not sent a UNIT-packet that specifies the label of each bit.
  • A bit is considered to be On when the bit is 1 if station has not sent a BITS-packet that specifies another "Bit sense" (a BITS-packet specify the state of the bits that match the BIT labels)